Time;durP1;ratioP1;P1;durP2;ratioP2;P2;SDS_P1;SDS_P2;PMS_P1;PMS_P2;Temp;Humidity;BMP_temperature;BMP_pressure;BME280_temperature;BME280_humidity;BME280_pressure;Samples;Min_cycle;Max_cycle;Signal;HPM_P1;HPM_P2
2021/01/17 00:02:16;;;;;;;8.23;6.32;;;;;;;-10.25;88.68;92834.13;4991607;28;20046;-84
2021/01/17 00:04:42;;;;;;;7.65;5.47;;;;;;;-10.22;89.31;92839.75;4991580;28;20042;-85
2021/01/17 00:07:09;;;;;;;7.85;6.22;;;;;;;-10.30;88.32;92831.13;4983365;28;20046;-85
2021/01/17 00:09:35;;;;;;;6.55;5.85;;;;;;;-10.26;87.81;92842.47;4991348;28;20062;-85
2021/01/17 00:12:03;;;;;;;12.57;5.68;;;;;;;-10.24;88.75;92840.72;4991135;28;20046;-85
2021/01/17 00:14:32;;;;;;;9.00;8.20;;;;;;;-10.33;86.68;92834.59;4991466;28;20047;-85
2021/01/17 00:16:59;;;;;;;5.70;4.63;;;;;;;-10.33;89.29;92837.09;4991431;28;20485;-85
2021/01/17 00:19:25;;;;;;;7.82;7.07;;;;;;;-10.28;89.46;92830.16;4991412;28;20525;-85
2021/01/17 00:21:51;;;;;;;9.02;4.97;;;;;;;-10.28;88.73;92830.16;4991248;28;20050;-85
2021/01/17 00:24:18;;;;;;;9.93;4.30;;;;;;;-10.37;87.37;92833.22;4991236;28;20058;-86
2021/01/17 00:26:44;;;;;;;7.50;5.97;;;;;;;-10.61;87.51;92832.13;4991276;28;20093;-84
2021/01/17 00:29:10;;;;;;;12.32;5.55;;;;;;;-10.62;88.44;92832.22;4991371;28;20106;-85
2021/01/17 00:31:37;;;;;;;8.23;4.25;;;;;;;-10.84;88.94;92813.66;4991126;28;20065;-84
2021/01/17 00:34:04;;;;;;;10.70;7.65;;;;;;;-10.81;90.19;92811.00;4990984;28;20046;-85
2021/01/17 00:36:37;;;;;;;5.85;5.45;;;;;;;-10.57;91.23;92835.22;4991027;28;20058;-85
2021/01/17 00:39:04;;;;;;;4.50;4.20;;;;;;;-10.55;90.40;92840.13;4990998;28;20105;-84
2021/01/17 00:41:30;;;;;;;3.00;2.70;;;;;;;-10.53;89.29;92844.09;4991305;28;20047;-84
2021/01/17 00:43:56;;;;;;;4.78;2.45;;;;;;;-10.50;89.53;92846.41;4991010;28;20085;-85
2021/01/17 00:46:23;;;;;;;6.32;3.60;;;;;;;-10.49;89.82;92840.53;4991106;28;20054;-85
2021/01/17 00:48:50;;;;;;;11.25;6.07;;;;;;;-10.48;89.95;92843.81;4990614;28;20054;-85
2021/01/17 00:51:16;;;;;;;5.68;5.13;;;;;;;-10.50;88.95;92843.94;4990972;28;20050;-84
2021/01/17 00:53:43;;;;;;;4.40;3.80;;;;;;;-10.52;89.10;92845.69;4990774;28;20046;-86
2021/01/17 00:56:09;;;;;;;2.72;2.53;;;;;;;-10.57;88.93;92836.94;4983179;28;20093;-84
2021/01/17 00:58:35;;;;;;;4.22;3.75;;;;;;;-10.52;89.30;92837.47;4991229;28;20077;-84
2021/01/17 01:01:01;;;;;;;6.30;3.72;;;;;;;-10.53;89.27;92840.81;4990783;28;20050;-84
2021/01/17 01:03:28;;;;;;;3.70;3.20;;;;;;;-10.56;89.25;92848.44;4993412;28;20054;-84
2021/01/17 01:05:55;;;;;;;4.18;3.85;;;;;;;-10.54;89.16;92851.63;4994431;28;20050;-85
2021/01/17 01:08:21;;;;;;;3.38;3.08;;;;;;;-10.51;89.65;92844.00;4994115;28;20074;-85
2021/01/17 01:10:47;;;;;;;5.30;4.32;;;;;;;-10.49;89.31;92843.03;4994551;28;20046;-84
2021/01/17 01:13:13;;;;;;;10.82;3.95;;;;;;;-10.52;89.58;92847.38;4994401;28;20486;-85
2021/01/17 01:15:39;;;;;;;4.70;4.30;;;;;;;-10.52;89.44;92839.94;4994297;28;20094;-84
2021/01/17 01:18:06;;;;;;;5.50;5.05;;;;;;;-10.52;89.19;92839.94;4994171;28;20050;-85
2021/01/17 01:20:32;;;;;;;7.43;5.45;;;;;;;-10.52;89.24;92837.47;4994641;28;20407;-86
2021/01/17 01:22:59;;;;;;;5.63;4.45;;;;;;;-10.54;89.02;92835.06;4994042;28;20061;-84
2021/01/17 01:25:25;;;;;;;6.20;3.97;;;;;;;-10.58;89.19;92835.31;4993975;28;20058;-85
2021/01/17 01:27:51;;;;;;;3.45;3.15;;;;;;;-10.57;89.04;92837.72;4994058;28;20061;-84
2021/01/17 01:30:18;;;;;;;4.72;4.32;;;;;;;-10.57;88.98;92836.94;4993972;28;20491;-85
2021/01/17 01:32:50;;;;;;;8.15;6.63;;;;;;;-10.60;89.20;92828.75;4994011;28;20042;-84
2021/01/17 01:35:16;;;;;;;6.13;4.80;;;;;;;-10.60;88.84;92833.72;4993873;28;20399;-84
2021/01/17 01:37:42;;;;;;;4.03;3.72;;;;;;;-10.62;88.44;92837.19;4993967;28;20105;-86
2021/01/17 01:40:10;;;;;;;8.00;4.22;;;;;;;-10.60;89.49;92830.47;4994236;28;20050;-84
2021/01/17 01:42:41;;;;;;;3.17;2.88;;;;;;;-10.67;88.90;92829.22;4994067;28;20043;-84
2021/01/17 01:45:10;;;;;;;1.83;1.70;;;;;;;-10.69;89.20;92826.03;4993707;28;20396;-84
2021/01/17 01:47:37;;;;;;;3.92;3.10;;;;;;;-10.70;88.47;92822.75;4993653;28;20129;-85
2021/01/17 01:50:04;;;;;;;3.15;2.72;;;;;;;-10.87;87.15;92833.69;4993696;28;20062;-84
2021/01/17 01:52:30;;;;;;;2.22;2.03;;;;;;;-11.01;85.82;92820.41;4993541;28;20426;-85
2021/01/17 01:54:57;;;;;;;2.92;2.60;;;;;;;-11.10;88.08;92822.63;4993467;28;20057;-84
2021/01/17 01:57:24;;;;;;;2.60;2.42;;;;;;;-10.96;90.35;92820.16;4993587;28;20050;-85
2021/01/17 01:59:51;;;;;;;2.40;2.20;;;;;;;-10.90;90.02;92822.28;4993520;28;20061;-84
2021/01/17 02:02:18;;;;;;;2.83;2.60;;;;;;;-10.87;89.87;92824.56;4993265;28;20487;-85
2021/01/17 02:04:44;;;;;;;3.90;3.60;;;;;;;-10.89;89.88;92826.34;4993647;28;20124;-85
2021/01/17 02:07:30;;;;;;;2.70;1.60;;;;;;;-10.88;89.68;92818.00;4993257;28;20097;-84
2021/01/17 02:09:57;;;;;;;9.90;1.98;;;;;;;-10.87;89.90;92827.03;4993265;28;20059;-85
2021/01/17 02:12:28;;;;;;;2.75;2.55;;;;;;;-10.90;89.71;92828.91;4993196;28;20487;-85
2021/01/17 02:15:01;;;;;;;1.27;1.20;;;;;;;-10.95;90.07;92823.41;4991986;28;20047;-85
2021/01/17 02:17:32;;;;;;;1.50;1.33;;;;;;;-10.88;89.18;92830.41;4993111;28;20050;-84
2021/01/17 02:20:14;;;;;;;3.33;3.03;;;;;;;-10.98;89.20;92806.25;4993113;28;20542;-85
2021/01/17 02:22:52;;;;;;;1.65;1.50;;;;;;;-11.02;88.02;92805.63;4993076;28;20414;-85
2021/01/17 02:25:20;;;;;;;9.60;4.95;;;;;;;-10.99;87.24;92822.03;4992822;28;20054;-84
2021/01/17 02:27:48;;;;;;;8.05;3.03;;;;;;;-11.08;88.84;92806.78;4993371;28;20450;-85
2021/01/17 02:30:16;;;;;;;2.05;1.88;;;;;;;-10.98;89.64;92819.44;4993103;28;20400;-84
2021/01/17 02:32:48;;;;;;;1.80;1.65;;;;;;;-10.94;89.86;92820.06;4992839;28;20046;-85
2021/01/17 02:35:16;;;;;;;2.53;1.92;;;;;;;-10.97;89.44;92816.09;4985665;28;20054;-84
2021/01/17 02:37:59;;;;;;;4.07;3.13;;;;;;;-10.98;88.76;92814.47;4992811;28;20051;-84
2021/01/17 02:40:42;;;;;;;3.30;3.03;;;;;;;-10.94;88.54;92813.41;4992987;28;20046;-84
2021/01/17 02:43:09;;;;;;;4.68;3.83;;;;;;;-11.58;88.63;92736.94;4992685;28;20050;-84
2021/01/17 02:45:36;;;;;;;4.10;3.80;;;;;;;-10.98;88.09;92826.09;4992605;28;20054;-84
2021/01/17 02:48:03;;;;;;;3.42;2.97;;;;;;;-10.99;89.28;92822.81;4992469;28;20050;-84
2021/01/17 02:50:29;;;;;;;1.63;1.25;;;;;;;-11.17;88.42;92802.34;4993003;28;20051;-84
2021/01/17 02:52:59;;;;;;;1.58;1.48;;;;;;;-11.05;88.19;92830.59;4992436;28;20419;-84
2021/01/17 02:55:26;;;;;;;2.83;2.63;;;;;;;-11.16;87.82;92833.72;4992695;28;20053;-84
2021/01/17 02:57:55;;;;;;;1.95;1.85;;;;;;;-11.12;88.44;92837.59;4992558;28;20415;-84
2021/01/17 03:00:24;;;;;;;3.38;2.65;;;;;;;-11.16;88.75;92822.09;4992560;28;20086;-84
2021/01/17 03:02:51;;;;;;;1.23;1.15;;;;;;;-11.45;89.07;92779.97;4992044;28;20509;-85
2021/01/17 03:05:21;;;;;;;4.63;2.53;;;;;;;-11.18;88.19;92825.56;4992514;28;20057;-84
2021/01/17 03:07:49;;;;;;;2.30;1.95;;;;;;;-11.25;87.72;92819.38;4992325;28;20055;-84
2021/01/17 03:10:16;;;;;;;3.47;3.15;;;;;;;-11.20;88.34;92824.84;4992124;28;20046;-84
2021/01/17 03:12:42;;;;;;;1.85;1.75;;;;;;;-11.21;88.53;92811.66;4992501;28;20050;-84
2021/01/17 03:15:10;;;;;;;2.70;2.50;;;;;;;-11.22;88.38;92815.03;4984165;28;20046;-85
2021/01/17 03:17:36;;;;;;;3.35;2.45;;;;;;;-11.18;88.75;92821.41;4991932;28;20046;-84
2021/01/17 03:20:04;;;;;;;2.38;1.63;;;;;;;-11.22;88.58;92821.69;4992152;28;20046;-84
2021/01/17 03:22:30;;;;;;;3.60;3.30;;;;;;;-11.23;89.28;92812.63;4992164;28;20050;-85
2021/01/17 03:24:56;;;;;;;3.97;3.20;;;;;;;-11.20;88.90;92812.47;4991669;28;20487;-84
2021/01/17 03:27:23;;;;;;;3.22;2.92;;;;;;;-11.21;88.36;92811.66;4991965;28;20105;-84
2021/01/17 03:29:49;;;;;;;8.85;3.97;;;;;;;-11.22;88.30;92811.75;4991574;28;20160;-84
2021/01/17 03:32:16;;;;;;;4.50;1.88;;;;;;;-11.38;86.64;92815.13;4992075;28;20132;-84
2021/01/17 03:34:48;;;;;;;3.55;3.28;;;;;;;-11.47;88.14;92816.44;4991977;28;20049;-84
2021/01/17 03:37:14;;;;;;;3.00;2.47;;;;;;;-11.43;88.65;92822.78;4991814;28;20061;-84
2021/01/17 03:39:40;;;;;;;4.57;2.58;;;;;;;-11.54;89.06;92791.19;4991833;28;20062;-84
2021/01/17 03:42:06;;;;;;;4.88;4.10;;;;;;;-11.39;88.19;92816.00;4991563;28;20050;-85
2021/01/17 03:44:33;;;;;;;1.70;1.60;;;;;;;-11.34;88.75;92815.72;4991497;28;20051;-84
2021/01/17 03:46:59;;;;;;;3.35;1.15;;;;;;;-11.36;87.68;92813.34;4991656;28;20054;-84
2021/01/17 03:49:26;;;;;;;2.70;1.73;;;;;;;-11.46;87.56;92808.13;4991294;28;20399;-84
2021/01/17 03:51:52;;;;;;;5.65;3.40;;;;;;;-11.52;87.57;92823.34;4991604;28;20057;-83
2021/01/17 03:54:18;;;;;;;5.50;4.97;;;;;;;-11.49;89.28;92829.81;4991400;28;20053;-84
2021/01/17 03:56:46;;;;;;;4.28;3.42;;;;;;;-11.44;89.98;92831.13;4991399;28;20046;-84
2021/01/17 03:59:12;;;;;;;2.03;1.92;;;;;;;-11.37;90.08;92824.16;4991359;28;20054;-84
2021/01/17 04:01:39;;;;;;;4.63;3.15;;;;;;;-11.28;89.38;92833.53;4991595;28;20058;-84
2021/01/17 04:04:05;;;;;;;2.65;2.45;;;;;;;-11.20;90.04;92838.03;4991556;28;20057;-84
2021/01/17 04:06:32;;;;;;;2.42;1.85;;;;;;;-11.23;89.17;92835.75;4991309;28;20051;-84
2021/01/17 04:08:58;;;;;;;3.05;2.85;;;;;;;-11.22;89.48;92831.59;4991185;28;20491;-85
2021/01/17 04:11:24;;;;;;;10.05;2.65;;;;;;;-11.22;89.08;92832.38;4991187;28;20053;-86
2021/01/17 04:13:50;;;;;;;4.00;3.67;;;;;;;-11.15;89.13;92825.38;4991193;28;20104;-84
2021/01/17 04:16:17;;;;;;;2.40;2.17;;;;;;;-11.14;89.17;92824.50;4991493;28;20046;-85
2021/01/17 04:18:43;;;;;;;8.38;6.32;;;;;;;-11.13;88.86;92823.59;4991127;28;20414;-84
2021/01/17 04:21:09;;;;;;;20.23;7.68;;;;;;;-11.12;88.92;92827.69;4983287;28;20050;-84
2021/01/17 04:23:36;;;;;;;15.63;6.10;;;;;;;-11.14;87.98;92834.41;4991228;28;20140;-84
2021/01/17 04:26:03;;;;;;;6.43;5.03;;;;;;;-11.16;88.28;92834.50;4990997;28;20058;-84
2021/01/17 04:28:29;;;;;;;6.55;6.03;;;;;;;-11.28;87.95;92825.28;4990951;28;20575;-85
2021/01/17 04:30:55;;;;;;;3.88;3.55;;;;;;;-11.28;89.58;92813.69;4991312;28;20054;-84
2021/01/17 04:33:22;;;;;;;6.18;5.57;;;;;;;-11.51;88.97;92779.50;4991295;28;20054;-84
2021/01/17 04:35:48;;;;;;;3.38;3.17;;;;;;;-11.18;87.69;92833.81;4991087;28;20529;-84
2021/01/17 04:38:15;;;;;;;23.65;6.75;;;;;;;-11.11;89.23;92839.22;4993664;28;20061;-85
2021/01/17 04:40:42;;;;;;;6.45;4.47;;;;;;;-11.07;88.70;92839.81;4994857;28;20042;-84
2021/01/17 04:43:10;;;;;;;6.00;3.53;;;;;;;-11.04;88.42;92839.63;4987087;28;20053;-84
2021/01/17 04:45:37;;;;;;;9.55;5.35;;;;;;;-11.05;88.26;92848.78;4994958;28;20116;-84
2021/01/17 04:48:04;;;;;;;15.93;5.65;;;;;;;-11.03;88.34;92841.22;4994865;28;20426;-85
2021/01/17 04:50:32;;;;;;;8.60;7.22;;;;;;;-11.07;87.90;92833.16;4994552;28;20051;-84
2021/01/17 04:53:01;;;;;;;7.22;6.63;;;;;;;-11.09;88.13;92844.06;4991676;28;20050;-85
2021/01/17 04:55:27;;;;;;;7.45;6.30;;;;;;;-11.16;88.12;92844.41;4994441;28;20061;-85
2021/01/17 04:58:04;;;;;;;13.02;7.15;;;;;;;-11.16;88.68;92851.06;4994785;28;20097;-85
2021/01/17 05:00:32;;;;;;;7.43;6.82;;;;;;;-11.07;89.98;92844.78;4994674;28;20062;-84
2021/01/17 05:03:18;;;;;;;11.65;5.85;;;;;;;-10.95;90.13;92835.81;4994710;28;20061;-84
2021/01/17 05:05:47;;;;;;;;;;;;;;;-10.87;90.00;92836.97;4994338;28;20049;-85
2021/01/17 05:08:32;;;;;;;5.68;4.78;;;;;;;-10.97;88.87;92828.50;4993930;28;20446;-83
2021/01/17 05:11:05;;;;;;;6.72;5.97;;;;;;;-10.94;89.70;92823.31;4994108;28;20046;-85
2021/01/17 05:13:47;;;;;;;14.65;9.25;;;;;;;-10.91;89.99;92823.16;4990579;28;20509;-84
2021/01/17 05:16:15;;;;;;;7.53;6.90;;;;;;;-10.73;90.25;92830.41;4994016;28;20410;-84
2021/01/17 05:18:47;;;;;;;16.98;6.88;;;;;;;-10.69;89.54;92831.81;4991419;28;20546;-84
2021/01/17 05:21:19;;;;;;;12.35;8.32;;;;;;;-10.80;88.89;92811.81;4993358;28;20050;-85
2021/01/17 05:23:47;;;;;;;18.10;9.60;;;;;;;-10.60;89.20;92831.25;4994312;28;20050;-84
2021/01/17 05:26:14;;;;;;;10.40;9.10;;;;;;;-10.62;87.95;92830.56;4994541;28;20069;-85
2021/01/17 05:28:41;;;;;;;7.45;6.85;;;;;;;-10.62;87.65;92830.56;4993879;28;20454;-84
2021/01/17 05:31:08;;;;;;;6.22;5.60;;;;;;;-10.56;88.03;92836.03;4993739;28;20047;-85
2021/01/17 05:33:34;;;;;;;6.88;5.85;;;;;;;-10.64;87.70;92843.94;4993744;28;20043;-85
2021/01/17 05:36:01;;;;;;;6.72;4.78;;;;;;;-10.73;88.43;92833.66;4994339;28;20097;-85
2021/01/17 05:38:27;;;;;;;10.52;5.40;;;;;;;-10.67;87.95;92839.16;4993888;28;20046;-84
2021/01/17 05:40:54;;;;;;;5.30;3.75;;;;;;;-10.70;88.04;92846.78;4993845;28;20114;-84
2021/01/17 05:43:20;;;;;;;6.78;4.35;;;;;;;-10.76;88.46;92848.75;4993702;28;20046;-85
2021/01/17 05:45:47;;;;;;;5.57;3.55;;;;;;;-10.74;88.76;92843.69;4993987;28;20054;-85
2021/01/17 05:48:13;;;;;;;6.32;5.75;;;;;;;-10.77;89.00;92841.38;4993589;28;20054;-85
2021/01/17 05:50:43;;;;;;;5.40;2.58;;;;;;;-10.76;89.36;92848.75;4993536;28;20078;-85
2021/01/17 05:53:09;;;;;;;2.83;2.58;;;;;;;-10.82;88.10;92843.34;4993393;28;20082;-85
2021/01/17 05:55:37;;;;;;;4.40;4.07;;;;;;;-10.96;87.69;92841.66;4993182;28;20380;-85
2021/01/17 05:58:23;;;;;;;4.68;3.20;;;;;;;-10.94;88.13;92835.72;4993767;28;20068;-85
2021/01/17 06:00:52;;;;;;;4.45;3.45;;;;;;;-10.93;89.65;92837.31;4993432;28;20507;-84
2021/01/17 06:03:24;;;;;;;10.05;7.22;;;;;;;-10.97;89.97;92826.00;4993430;28;20086;-85
2021/01/17 06:05:52;;;;;;;6.32;5.80;;;;;;;-10.91;89.76;92833.09;4993122;28;20145;-85
2021/01/17 06:08:19;;;;;;;12.05;8.35;;;;;;;-10.90;89.47;92834.69;4992944;28;20101;-84
2021/01/17 06:10:47;;;;;;;6.80;5.95;;;;;;;-10.91;89.85;92829.78;4993245;28;20043;-84
2021/01/17 06:13:20;;;;;;;6.68;5.85;;;;;;;-10.92;89.78;92821.53;4993213;28;20453;-84
2021/01/17 06:15:47;;;;;;;6.78;4.63;;;;;;;-11.04;88.72;92828.03;4993220;28;20050;-86
2021/01/17 06:18:18;;;;;;;12.10;4.57;;;;;;;-11.10;89.50;92811.03;4993078;28;20100;-84
2021/01/17 06:20:45;;;;;;;9.93;6.43;;;;;;;-10.96;90.55;92825.13;4992734;28;20514;-86
2021/01/17 06:23:12;;;;;;;7.75;6.97;;;;;;;-10.94;90.60;92817.59;4992962;28;20073;-85
2021/01/17 06:25:38;;;;;;;17.45;8.50;;;;;;;-10.88;89.97;92817.22;4993085;28;20054;-85
2021/01/17 06:28:07;;;;;;;5.95;5.35;;;;;;;-10.93;90.38;92800.09;4992796;28;20054;-84
2021/01/17 06:30:33;;;;;;;4.50;3.85;;;;;;;-10.82;90.54;92801.97;4992989;28;20062;-84
2021/01/17 06:33:02;;;;;;;6.38;5.72;;;;;;;-10.66;89.81;92816.72;4992749;28;20133;-85
2021/01/17 06:35:34;;;;;;;8.45;7.30;;;;;;;-10.70;89.15;92802.13;4992614;28;20054;-84
2021/01/17 06:38:15;;;;;;;9.85;5.22;;;;;;;-10.44;89.04;92834.50;4992784;28;20415;-84
2021/01/17 06:40:42;;;;;;;8.80;5.28;;;;;;;-10.38;89.53;92831.63;4992615;28;20129;-85
2021/01/17 06:43:11;;;;;;;4.85;4.53;;;;;;;-10.33;89.01;92837.91;5002849;28;20133;-84
2021/01/17 06:45:40;;;;;;;6.20;5.60;;;;;;;-10.29;88.33;92836.00;4992418;28;20549;-85
2021/01/17 06:48:07;;;;;;;8.95;4.53;;;;;;;-10.26;88.07;92827.59;4992542;28;20396;-84
2021/01/17 06:50:35;;;;;;;22.48;8.32;;;;;;;-10.17;88.45;92836.16;4992644;28;20050;-85
2021/01/17 06:53:01;;;;;;;5.55;4.72;;;;;;;-10.06;87.55;92841.25;4992300;28;20453;-84
2021/01/17 06:55:28;;;;;;;13.70;8.43;;;;;;;-9.98;87.60;92839.09;4992519;28;20101;-84
2021/01/17 06:57:55;;;;;;;8.38;7.32;;;;;;;-9.95;87.57;92838.91;4992387;28;20054;-84
2021/01/17 07:00:22;;;;;;;13.13;8.32;;;;;;;-9.93;86.13;92843.78;4991744;28;20086;-84
2021/01/17 07:02:53;;;;;;;17.80;11.50;;;;;;;-9.82;86.74;92843.91;4992339;28;20077;-84
2021/01/17 07:06:06;;;;;;;15.00;7.90;;;;;;;-10.04;86.03;92813.84;4992372;28;20072;-84
2021/01/17 07:08:58;;;;;;;15.52;9.55;;;;;;;-9.98;85.06;92836.63;4991799;28;20058;-84
2021/01/17 07:11:40;;;;;;;7.72;6.63;;;;;;;-9.91;86.31;92836.25;4989668;28;20053;-84
2021/01/17 07:14:07;;;;;;;5.80;4.75;;;;;;;-9.66;87.80;92838.78;4991963;28;20043;-85
2021/01/17 07:16:35;;;;;;;10.13;6.43;;;;;;;-9.57;84.51;92842.38;4992156;28;20109;-84
2021/01/17 07:19:05;;;;;;;9.32;8.57;;;;;;;-9.36;85.15;92839.38;4991820;28;20046;-85
2021/01/17 07:21:37;;;;;;;7.95;6.63;;;;;;;-9.52;83.62;92832.13;4991588;28;20050;-85
2021/01/17 07:24:06;;;;;;;7.57;6.40;;;;;;;-9.27;83.34;92840.47;4991962;28;20096;-86
2021/01/17 07:26:47;;;;;;;5.85;4.18;;;;;;;-9.30;82.97;92828.25;4991353;28;20050;-85
2021/01/17 07:29:16;;;;;;;9.70;6.85;;;;;;;-8.99;82.98;92848.63;4991723;28;20054;-86
2021/01/17 07:31:45;;;;;;;10.55;4.70;;;;;;;-8.73;85.58;92843.63;4991590;28;20576;-87
2021/01/17 07:34:13;;;;;;;14.32;7.07;;;;;;;-8.57;85.38;92843.38;4991862;28;20141;-85
2021/01/17 07:36:48;;;;;;;11.00;6.97;;;;;;;-8.27;84.88;92844.69;4991762;28;20046;-85
2021/01/17 07:39:18;;;;;;;15.85;6.97;;;;;;;-8.19;84.81;92841.66;4991847;28;20054;-86
2021/01/17 07:41:48;;;;;;;9.82;6.72;;;;;;;-8.02;84.42;92852.94;4991633;28;20057;-86
2021/01/17 07:44:16;;;;;;;10.65;8.68;;;;;;;-8.11;84.22;92828.69;4991537;28;20054;-85
2021/01/17 07:46:43;;;;;;;13.15;10.80;;;;;;;-7.97;83.60;92847.66;4991507;28;20057;-86
2021/01/17 07:49:11;;;;;;;14.23;10.48;;;;;;;-7.94;83.62;92848.22;4991310;28;20399;-86
2021/01/17 07:51:37;;;;;;;11.55;9.13;;;;;;;-7.94;84.16;92855.72;4991455;28;20050;-86
2021/01/17 07:54:14;;;;;;;9.48;7.30;;;;;;;-7.87;83.74;92855.28;4991539;28;20054;-86
2021/01/17 07:56:43;;;;;;;18.73;11.60;;;;;;;-7.77;83.13;92858.72;4991263;28;21314;-86
2021/01/17 07:59:10;;;;;;;19.65;13.70;;;;;;;-7.86;82.47;92842.72;4991399;28;20078;-85
2021/01/17 08:01:44;;;;;;;17.85;13.20;;;;;;;-7.66;83.83;92853.78;4991322;28;20137;-86
2021/01/17 08:04:24;;;;;;;11.63;5.97;;;;;;;-7.62;83.48;92851.03;4991440;28;20057;-86
2021/01/17 08:06:51;;;;;;;14.60;11.30;;;;;;;-7.49;83.60;92854.28;4989050;28;20046;-86
2021/01/17 08:09:19;;;;;;;9.38;8.40;;;;;;;-7.43;83.49;92858.03;4971719;28;20396;-85
2021/01/17 08:11:48;;;;;;;7.72;5.85;;;;;;;-7.35;82.09;92848.28;4972040;28;20404;-86
2021/01/17 08:14:22;;;;;;;13.35;9.30;;;;;;;-7.57;81.13;92819.09;4976045;28;20051;-87
2021/01/17 08:17:09;;;;;;;11.82;6.63;;;;;;;-7.33;80.81;92856.47;4975876;28;20113;-87
2021/01/17 08:19:37;;;;;;;13.38;4.40;;;;;;;-7.34;82.24;92857.38;4975600;28;20093;-85
2021/01/17 08:22:44;;;;;;;6.13;5.07;;;;;;;-7.25;81.00;92858.41;4975464;28;20046;-86
2021/01/17 08:25:13;;;;;;;19.17;13.32;;;;;;;-7.39;82.06;92834.44;4975679;28;20051;-87
2021/01/17 08:27:41;;;;;;;6.35;4.38;;;;;;;-7.25;81.08;92845.94;4975604;28;20050;-86
2021/01/17 08:30:28;;;;;;;21.05;9.23;;;;;;;-7.23;81.33;92844.09;4975443;28;20541;-86
2021/01/17 08:32:55;;;;;;;13.60;6.35;;;;;;;-7.14;81.57;92850.13;4967997;28;20047;-83
2021/01/17 08:35:35;;;;;;;10.45;6.25;;;;;;;-7.00;81.48;92856.59;4975575;28;20054;-87
2021/01/17 08:38:16;;;;;;;3.53;3.22;;;;;;;-6.97;81.74;92861.38;4975465;28;20101;-87
2021/01/17 08:40:53;;;;;;;10.20;5.22;;;;;;;-7.08;78.95;92846.41;4975603;28;20047;-86
2021/01/17 08:43:34;;;;;;;29.73;12.30;;;;;;;-6.96;81.08;92860.47;4969169;28;20042;-86
2021/01/17 08:46:01;;;;;;;17.02;6.25;;;;;;;-6.81;80.57;92862.75;4975454;28;20565;-87
2021/01/17 08:48:31;;;;;;;4.03;3.42;;;;;;;-6.59;78.74;92870.25;4975419;28;20546;-84
2021/01/17 08:51:18;;;;;;;4.50;3.97;;;;;;;-6.61;76.54;92872.06;4992185;28;20161;-84
2021/01/17 08:53:45;;;;;;;5.88;3.40;;;;;;;-6.69;75.46;92856.03;4994802;28;20090;-84
2021/01/17 08:56:23;;;;;;;4.45;3.00;;;;;;;-6.97;74.14;92871.38;4994325;28;20058;-85
2021/01/17 08:58:51;;;;;;;5.43;4.43;;;;;;;-6.81;76.87;92877.75;4994606;28;20584;-85
2021/01/17 09:01:18;;;;;;;5.65;3.13;;;;;;;-6.94;77.72;92862.88;4994451;28;20046;-86
2021/01/17 09:03:57;;;;;;;5.10;4.10;;;;;;;-6.74;79.54;92862.19;4994693;28;20042;-87
2021/01/17 09:06:26;;;;;;;3.10;2.55;;;;;;;-6.53;76.20;92873.97;4994642;28;20050;-86
2021/01/17 09:09:07;;;;;;;7.75;5.20;;;;;;;-6.46;73.88;92865.13;5005604;28;20050;-85
2021/01/17 09:11:39;;;;;;;10.75;5.22;;;;;;;-6.49;71.67;92872.84;5013823;28;20478;-86
2021/01/17 09:14:24;;;;;;;7.35;5.15;;;;;;;-6.90;70.96;92869.22;5013729;28;20061;-86
2021/01/17 09:16:52;;;;;;;7.07;4.93;;;;;;;-6.68;72.49;92875.94;5014098;28;20478;-86
2021/01/17 09:19:20;;;;;;;5.57;3.40;;;;;;;-6.57;71.04;92858.44;5013757;28;20056;-87
2021/01/17 09:21:49;;;;;;;6.05;4.40;;;;;;;-6.49;70.47;92849.59;5002720;28;20050;-87
2021/01/17 09:24:17;;;;;;;7.78;4.35;;;;;;;-6.18;71.13;92849.75;4993683;28;20141;-87
2021/01/17 09:26:48;;;;;;;3.78;2.22;;;;;;;-6.51;68.62;92849.69;4996703;28;20388;-86
2021/01/17 09:29:30;;;;;;;6.93;5.28;;;;;;;-6.36;73.61;92837.75;4988932;28;20533;-87
2021/01/17 09:31:59;;;;;;;6.05;4.00;;;;;;;-6.50;69.66;92841.28;4987399;28;20446;-86
2021/01/17 09:34:28;;;;;;;5.82;3.28;;;;;;;-6.42;69.04;92840.72;4993702;28;20046;-87
2021/01/17 09:36:56;;;;;;;6.18;4.00;;;;;;;-6.48;69.06;92841.19;4993906;28;20043;-87
2021/01/17 09:39:30;;;;;;;7.88;5.35;;;;;;;-6.26;71.49;92832.81;4993496;28;20089;-87
2021/01/17 09:41:57;;;;;;;11.27;4.68;;;;;;;-6.28;68.82;92836.34;4993710;28;20050;-88
2021/01/17 09:44:23;;;;;;;12.57;5.43;;;;;;;-6.04;69.79;92834.50;4993120;28;20050;-87
2021/01/17 09:46:50;;;;;;;8.55;4.45;;;;;;;-5.97;71.46;92834.75;4993530;28;20046;-88
2021/01/17 09:49:24;;;;;;;4.38;3.10;;;;;;;-5.73;70.47;92808.75;4993431;28;20061;-88
2021/01/17 09:51:50;;;;;;;30.40;13.63;;;;;;;-5.32;71.21;92830.63;5009779;28;20414;-88
2021/01/17 09:54:17;;;;;;;24.25;11.95;;;;;;;-5.07;71.64;92819.41;5013134;28;20057;-89
2021/01/17 09:56:44;;;;;;;18.13;7.05;;;;;;;-4.94;67.88;92811.69;5013216;28;20068;-86
2021/01/17 09:59:15;;;;;;;16.08;6.32;;;;;;;-5.00;65.12;92812.19;5013021;28;20057;-89
2021/01/17 10:01:42;;;;;;;10.02;4.13;;;;;;;-4.92;64.19;92797.31;5008574;28;20069;-88
2021/01/17 10:04:19;;;;;;;4.80;2.33;;;;;;;-4.59;64.57;92813.00;4993383;28;20129;-88
2021/01/17 10:06:46;;;;;;;6.53;3.05;;;;;;;-4.58;63.29;92798.75;4992945;28;20137;-89
2021/01/17 10:09:16;;;;;;;6.00;3.28;;;;;;;-5.10;64.94;92680.22;4993161;28;20491;-90
2021/01/17 10:11:43;;;;;;;9.75;3.92;;;;;;;-3.96;62.24;92811.13;4993292;28;20144;-88
2021/01/17 10:14:11;;;;;;;13.60;6.05;;;;;;;-3.83;64.34;92810.06;4985198;28;20418;-88
2021/01/17 10:16:39;;;;;;;8.48;2.80;;;;;;;-3.93;64.99;92810.84;4993464;28;20050;-88
2021/01/17 10:19:06;;;;;;;5.15;3.13;;;;;;;-3.95;65.10;92809.41;4993141;28;20129;-89
2021/01/17 10:21:38;;;;;;;10.70;6.82;;;;;;;-3.82;64.55;92801.63;4995893;28;20085;-88
2021/01/17 10:24:06;;;;;;;21.40;9.98;;;;;;;-3.90;64.62;92799.75;4993498;28;20135;-88
2021/01/17 10:26:34;;;;;;;7.15;4.32;;;;;;;-4.06;66.55;92780.22;4992839;28;20058;-90
2021/01/17 10:29:05;;;;;;;5.68;3.85;;;;;;;-4.03;60.64;92782.50;4992947;28;20062;-88
2021/01/17 10:31:36;;;;;;;6.88;3.03;;;;;;;-3.98;64.58;92787.88;4992953;28;20050;-88
2021/01/17 10:34:04;;;;;;;7.72;4.18;;;;;;;-3.87;64.22;92793.69;4992626;28;20433;-89
2021/01/17 10:36:30;;;;;;;5.22;3.05;;;;;;;-4.15;60.79;92789.34;4988785;28;20065;-89
2021/01/17 10:38:56;;;;;;;;;;;;;;;-4.60;60.42;92791.38;4993449;28;20046;-88
2021/01/17 10:41:25;;;;;;;4.50;2.38;;;;;;;-5.02;63.39;92787.28;4992545;28;20444;-89
2021/01/17 10:44:03;;;;;;;3.10;2.05;;;;;;;-5.37;65.03;92778.41;4992546;28;20170;-88
2021/01/17 10:46:33;;;;;;;3.63;2.67;;;;;;;-5.15;67.74;92771.66;4992489;28;20065;-88
2021/01/17 10:49:08;;;;;;;2.25;1.42;;;;;;;-5.16;61.91;92775.88;4987808;28;20062;-88
2021/01/17 10:51:39;;;;;;;6.85;3.33;;;;;;;-5.26;60.44;92792.56;4972770;28;20399;-88
2021/01/17 10:54:06;;;;;;;2.42;1.73;;;;;;;-5.24;63.02;92791.53;4972894;28;20129;-88
2021/01/17 10:56:34;;;;;;;5.95;2.65;;;;;;;-5.07;64.99;92789.34;4973276;28;20105;-89
2021/01/17 10:59:09;;;;;;;3.78;2.88;;;;;;;-5.03;62.77;92775.69;4973292;28;20051;-89
2021/01/17 11:01:35;;;;;;;13.82;5.65;;;;;;;-4.96;66.95;92766.72;4972846;28;20043;-89
2021/01/17 11:04:03;;;;;;;3.22;3.03;;;;;;;-5.14;62.88;92778.25;4972585;28;20050;-89
2021/01/17 11:06:30;;;;;;;3.35;2.50;;;;;;;-5.10;67.06;92782.88;4972879;28;20051;-89
2021/01/17 11:08:58;;;;;;;5.63;2.80;;;;;;;-5.12;66.22;92754.69;4972414;28;20050;-88
2021/01/17 11:11:25;;;;;;;4.13;2.50;;;;;;;-4.84;68.77;92764.13;4972677;28;21099;-88
2021/01/17 11:13:59;;;;;;;4.03;3.20;;;;;;;-4.99;62.13;92771.97;4972579;28;20522;-88
2021/01/17 11:16:35;;;;;;;4.90;3.17;;;;;;;-5.18;60.95;92759.41;4972420;28;20050;-88
2021/01/17 11:19:03;;;;;;;9.93;4.70;;;;;;;-5.44;61.16;92704.72;4972450;28;20082;-89
2021/01/17 11:21:30;;;;;;;1.98;1.75;;;;;;;-4.72;60.55;92768.09;4972614;28;20050;-89
2021/01/17 11:23:57;;;;;;;4.75;2.53;;;;;;;-5.04;61.20;92763.28;4972482;28;20079;-88
2021/01/17 11:26:26;;;;;;;21.48;9.00;;;;;;;-5.20;62.60;92756.22;4953547;28;20400;-89
2021/01/17 11:28:53;;;;;;;21.25;7.25;;;;;;;-5.20;63.55;92741.22;4952902;29;20074;-91
2021/01/17 11:31:21;;;;;;;22.10;5.90;;;;;;;-5.02;64.79;92733.88;4953330;29;20480;-90
2021/01/17 11:33:48;;;;;;;8.18;4.03;;;;;;;-5.67;63.90;92749.91;4953125;29;20048;-88
2021/01/17 11:36:21;;;;;;;2.45;1.67;;;;;;;-5.57;65.13;92749.97;4960350;28;20051;-88
2021/01/17 11:38:49;;;;;;;10.38;4.28;;;;;;;-5.58;67.17;92708.34;4971966;28;20043;-89